Bitter Creek, Wyoming
Current Conditions -  °F | °C
As of 6:54 AM on Thursday 23 Oct 2014 (Local Time) from KRKS Reporting Station
Clear Clear  
Wind Chill: 36°   Ceiling: Unl
Heat Index: 36°   Visibility: 10mi
Dew Point: 21°   Wind: 0mph
Humidity: 55%   Direction: NA
Pressure: 30.23"   Gusts: NA
Location:  41.6045°N, 108.954°W
Report Text: KRKS 231254Z AUTO 00000KT 10SM CLR 02/M06 A3023 RMK AO2 SLP219 T00221061
Loading
Personal Weather Stations






























Interactive Weather Map
Tropical Storm Tracking
New forecast layout! Learn more

10-Day Weather Forecast

Advertisements
Track Severe Weather on mobile